Avon, Illinois
Current Conditions -  °F | °C
As of 3:55 AM on Saturday 25 Oct 2014 (Local Time) from KMQB Reporting Station
Moderate Fog Moderate Fog  
Wind Chill:   Ceiling: 1000
Heat Index:   Visibility: 0.25mi
Dew Point:   Wind: 6mph
Humidity: 100%   Direction: 270°W
Pressure: 29.97"   Gusts: NA
Location:  40.66°N, 90.43°W
Report Text: KMQB 250855Z AUTO 27005KT 1/4SM FG BKN010 09/09 A2997 RMK AO2 T00850085
Loading
Personal Weather Stations






























Interactive Weather Map
Tropical Storm Tracking
New forecast layout! Learn more

10-Day Weather Forecast

Advertisements
Track Severe Weather on mobile